createdAt,value
2023-04-30T00:01:38.760Z,8.18
2023-04-30T00:04:40.318Z,10.07
2023-04-30T00:07:42.592Z,7.63
2023-04-30T00:10:44.286Z,8.93
2023-04-30T00:13:45.820Z,9.35
2023-04-30T00:16:47.398Z,8.07
2023-04-30T00:19:48.926Z,7.95
2023-04-30T00:22:50.439Z,9.15
2023-04-30T00:25:51.884Z,10.80
2023-04-30T00:28:53.299Z,8.40
2023-04-30T00:31:54.798Z,8.57
2023-04-30T00:34:56.304Z,10.43
2023-04-30T00:37:57.797Z,8.95
2023-04-30T00:40:59.934Z,11.20
2023-04-30T00:44:02.902Z,8.50
2023-04-30T00:47:04.450Z,9.82
2023-04-30T00:50:06.907Z,9.68
2023-04-30T00:53:08.456Z,11.05
2023-04-30T00:56:10.941Z,10.25
2023-04-30T00:59:13.527Z,10.65
2023-04-30T01:02:15.277Z,11.55
2023-04-30T01:05:16.900Z,10.30
2023-04-30T01:08:18.424Z,8.57
2023-04-30T01:11:25.974Z,10.70
2023-04-30T01:14:42.664Z,9.98
2023-04-30T01:17:52.031Z,11.88
2023-04-30T01:20:58.848Z,9.65
2023-04-30T01:24:16.330Z,9.02
2023-04-30T01:27:48.899Z,8.57
2023-04-30T01:30:50.952Z,10.77
2023-04-30T01:33:52.466Z,9.13
2023-04-30T01:37:22.213Z,8.65
2023-04-30T01:40:36.214Z,9.52
2023-04-30T01:43:48.571Z,9.32
2023-04-30T01:47:01.482Z,11.07
2023-04-30T01:50:06.526Z,9.18
2023-04-30T01:53:13.886Z,9.65
2023-04-30T01:56:38.297Z,9.57
2023-04-30T01:59:41.159Z,11.48
2023-04-30T02:02:42.839Z,9.45
2023-04-30T02:05:44.941Z,10.63
2023-04-30T02:08:46.540Z,12.05
2023-04-30T02:11:48.044Z,11.90
2023-04-30T02:14:49.520Z,9.70
2023-04-30T02:17:51.213Z,11.70
2023-04-30T02:20:52.706Z,10.75
2023-04-30T02:23:54.502Z,10.07
2023-04-30T02:26:56.038Z,8.82
2023-04-30T02:29:57.872Z,9.80
2023-04-30T02:32:59.384Z,8.90
2023-04-30T02:36:00.997Z,9.18
2023-04-30T02:39:02.595Z,8.57
2023-04-30T02:42:04.742Z,9.80
2023-04-30T02:45:06.780Z,7.93
2023-04-30T02:48:08.292Z,9.75
2023-04-30T02:51:09.903Z,8.35
2023-04-30T02:54:11.655Z,8.68
2023-04-30T02:57:14.054Z,8.52
2023-04-30T03:00:15.539Z,8.85
2023-04-30T03:03:17.264Z,11.32
2023-04-30T03:06:19.188Z,12.20
2023-04-30T03:09:21.152Z,13.40
2023-04-30T03:12:22.732Z,13.00
2023-04-30T03:15:24.149Z,13.35
2023-04-30T03:18:26.839Z,12.70
2023-04-30T03:21:28.326Z,9.07
2023-04-30T03:24:30.214Z,10.73
2023-04-30T03:27:31.688Z,8.30
2023-04-30T03:30:33.236Z,9.10
2023-04-30T03:33:34.875Z,8.90
2023-04-30T03:36:36.385Z,8.13
2023-04-30T03:39:37.946Z,6.18
2023-04-30T03:42:39.487Z,7.57
2023-04-30T03:45:41.068Z,7.47
2023-04-30T03:48:42.769Z,8.05
2023-04-30T03:51:44.364Z,6.47
2023-04-30T03:54:45.944Z,7.03
2023-04-30T03:57:48.446Z,6.57
2023-04-30T04:00:50.446Z,6.55
2023-04-30T04:03:52.355Z,5.78
2023-04-30T04:06:53.883Z,6.75
2023-04-30T04:09:55.895Z,6.80
2023-04-30T04:12:57.757Z,6.70
2023-04-30T04:15:59.440Z,6.80
2023-04-30T04:19:00.918Z,7.55
2023-04-30T04:22:02.775Z,7.45
2023-04-30T04:25:04.680Z,7.40
2023-04-30T04:28:08.315Z,7.38
2023-04-30T04:31:10.023Z,8.35
2023-04-30T04:34:11.493Z,7.82
2023-04-30T04:37:12.974Z,7.70
2023-04-30T04:40:14.886Z,10.20
2023-04-30T04:43:16.989Z,7.53
2023-04-30T04:46:18.616Z,8.52
2023-04-30T04:49:20.896Z,8.13
2023-04-30T04:52:22.370Z,7.60
2023-04-30T04:55:23.832Z,7.68
2023-04-30T04:58:25.428Z,8.07
2023-04-30T05:01:27.217Z,8.98
2023-04-30T05:04:30.481Z,8.07
2023-04-30T05:07:31.995Z,8.60
2023-04-30T05:10:34.882Z,8.98
2023-04-30T05:13:36.440Z,7.75
2023-04-30T05:16:38.068Z,9.25
2023-04-30T05:19:39.621Z,9.30
2023-04-30T05:22:41.085Z,9.60
2023-04-30T05:25:42.796Z,8.38
2023-04-30T05:28:45.227Z,9.57
2023-04-30T05:31:46.902Z,8.63
2023-04-30T05:34:48.462Z,7.50
2023-04-30T05:37:50.217Z,9.23
2023-04-30T05:40:52.091Z,9.32
2023-04-30T05:43:53.511Z,6.88
2023-04-30T05:46:54.926Z,8.57
2023-04-30T05:49:57.723Z,9.50
2023-04-30T05:52:59.273Z,9.23
2023-04-30T05:56:00.904Z,8.68
2023-04-30T05:59:02.450Z,8.40
2023-04-30T06:02:03.940Z,6.00
2023-04-30T06:05:07.978Z,6.88
2023-04-30T06:11:12.747Z,7.97
2023-04-30T06:14:14.537Z,7.23
2023-04-30T06:17:16.515Z,7.80
2023-04-30T06:20:18.094Z,7.47
2023-04-30T06:23:19.554Z,7.80
2023-04-30T06:26:21.256Z,8.90
2023-04-30T06:29:24.413Z,6.82
2023-04-30T06:32:25.942Z,7.37
2023-04-30T06:35:27.540Z,7.30
2023-04-30T06:38:29.141Z,6.28
2023-04-30T06:41:32.480Z,5.80
2023-04-30T06:44:33.920Z,5.40
2023-04-30T06:47:37.882Z,7.82
2023-04-30T06:53:46.325Z,7.97
2023-04-30T06:56:47.772Z,6.20
2023-04-30T06:59:49.260Z,8.27
2023-04-30T07:02:52.122Z,5.90
2023-04-30T07:05:54.121Z,6.72
2023-04-30T07:08:55.775Z,7.40
2023-04-30T07:11:58.611Z,8.57
2023-04-30T07:15:00.508Z,5.97
2023-04-30T07:18:03.793Z,6.55
2023-04-30T07:21:05.815Z,6.22
2023-04-30T07:24:07.260Z,4.65
2023-04-30T07:27:11.909Z,6.30
2023-04-30T07:30:13.848Z,7.07
2023-04-30T07:33:15.407Z,6.05
2023-04-30T07:36:17.014Z,5.80
2023-04-30T07:39:18.594Z,5.50
2023-04-30T07:42:20.089Z,7.80
2023-04-30T07:45:21.680Z,6.65
2023-04-30T07:48:23.160Z,5.75
2023-04-30T07:51:24.675Z,5.47
2023-04-30T07:54:26.342Z,5.13
2023-04-30T07:57:27.917Z,5.88
2023-04-30T08:00:30.906Z,5.10
2023-04-30T08:03:32.642Z,4.80
2023-04-30T08:06:34.408Z,5.15
2023-04-30T08:09:35.885Z,5.13
2023-04-30T08:12:37.536Z,6.07
2023-04-30T08:15:40.015Z,6.07
2023-04-30T08:18:44.794Z,5.72
2023-04-30T08:21:46.346Z,4.65
2023-04-30T08:24:47.793Z,6.25
2023-04-30T08:27:49.266Z,4.60
2023-04-30T08:30:50.737Z,4.85
2023-04-30T08:33:52.239Z,5.18
2023-04-30T08:36:53.756Z,4.85
2023-04-30T08:39:55.569Z,4.63
2023-04-30T08:43:05.360Z,4.95
2023-04-30T08:46:07.557Z,5.20
2023-04-30T08:49:09.138Z,5.95
2023-04-30T08:52:11.028Z,4.57
2023-04-30T08:55:12.567Z,6.05
2023-04-30T08:58:14.033Z,5.20
2023-04-30T09:01:16.604Z,7.07
2023-04-30T09:04:18.121Z,4.35
2023-04-30T09:07:20.716Z,4.57
2023-04-30T09:10:22.920Z,4.35
2023-04-30T09:13:24.343Z,4.10
2023-04-30T09:16:27.684Z,4.95
2023-04-30T09:19:30.801Z,4.15
2023-04-30T09:22:32.541Z,4.77
2023-04-30T09:25:43.507Z,4.60
2023-04-30T09:28:56.704Z,4.53
2023-04-30T09:32:08.910Z,4.10
2023-04-30T09:35:29.458Z,4.22
2023-04-30T09:38:32.772Z,3.38
2023-04-30T09:41:35.332Z,4.30
2023-04-30T09:44:38.542Z,4.50
2023-04-30T09:47:40.328Z,5.43
2023-04-30T09:50:43.474Z,5.38
2023-04-30T09:53:45.605Z,3.97
2023-04-30T09:56:47.328Z,7.20
2023-04-30T09:59:50.768Z,6.15
2023-04-30T10:02:53.708Z,3.33
2023-04-30T10:05:55.637Z,3.90
2023-04-30T10:08:58.309Z,3.88
2023-04-30T10:12:01.943Z,3.60
2023-04-30T10:15:26.591Z,3.95
2023-04-30T10:18:50.372Z,5.85
2023-04-30T10:21:52.579Z,4.13
2023-04-30T10:24:54.405Z,3.45
2023-04-30T10:27:56.549Z,4.30
2023-04-30T10:30:58.728Z,5.13
2023-04-30T10:34:00.178Z,7.00
2023-04-30T10:37:14.991Z,4.45
2023-04-30T10:40:16.644Z,5.38
2023-04-30T10:43:19.815Z,4.97
2023-04-30T10:46:24.827Z,4.63
2023-04-30T10:49:27.164Z,4.80
2023-04-30T10:52:29.906Z,4.53
2023-04-30T10:55:33.370Z,5.25
2023-04-30T10:58:36.937Z,3.47
2023-04-30T11:01:59.022Z,4.50
2023-04-30T11:05:11.703Z,4.80
2023-04-30T11:08:13.366Z,5.18
2023-04-30T11:11:21.361Z,3.90
2023-04-30T11:14:23.105Z,4.72
2023-04-30T11:17:25.050Z,3.70
2023-04-30T11:20:27.775Z,4.20
2023-04-30T11:23:39.408Z,4.35
2023-04-30T11:27:12.881Z,5.10
2023-04-30T11:30:16.537Z,4.82
2023-04-30T11:33:19.043Z,4.20
2023-04-30T11:36:20.957Z,3.63
2023-04-30T11:39:24.765Z,3.90
2023-04-30T11:42:26.294Z,5.05
2023-04-30T11:45:27.820Z,3.92
2023-04-30T11:48:36.764Z,5.88
2023-04-30T11:51:38.581Z,4.80
2023-04-30T11:54:40.181Z,3.60
2023-04-30T11:57:44.335Z,4.25
2023-04-30T12:00:45.851Z,4.00
2023-04-30T12:03:49.210Z,4.28
2023-04-30T12:06:51.658Z,4.90
2023-04-30T12:09:55.018Z,4.68
2023-04-30T12:12:56.853Z,4.38
2023-04-30T12:15:59.735Z,4.82
2023-04-30T12:19:03.866Z,4.03
2023-04-30T12:22:05.710Z,4.10
2023-04-30T12:25:09.986Z,4.22
2023-04-30T12:28:12.181Z,3.97
2023-04-30T12:31:13.748Z,3.90
2023-04-30T12:34:15.939Z,5.50
2023-04-30T12:37:17.503Z,4.63
2023-04-30T12:40:21.580Z,3.85
2023-04-30T12:43:23.097Z,5.03
2023-04-30T12:46:28.190Z,4.07
2023-04-30T12:49:33.552Z,5.35
2023-04-30T12:52:35.165Z,4.38
2023-04-30T12:55:37.877Z,5.35
2023-04-30T12:58:40.461Z,4.65
2023-04-30T13:01:45.508Z,4.38
2023-04-30T13:04:47.008Z,4.60
2023-04-30T13:07:52.516Z,4.40
2023-04-30T13:10:53.960Z,5.68
2023-04-30T13:13:55.919Z,4.47
2023-04-30T13:16:57.770Z,5.20
2023-04-30T13:19:59.341Z,5.25
2023-04-30T13:23:00.760Z,3.70
2023-04-30T13:26:02.246Z,4.38
2023-04-30T13:29:04.220Z,3.70
2023-04-30T13:32:05.954Z,3.85
2023-04-30T13:35:08.468Z,3.70
2023-04-30T13:38:10.207Z,4.03
2023-04-30T13:41:11.804Z,3.72
2023-04-30T13:44:13.295Z,3.97
2023-04-30T13:47:15.147Z,4.30
2023-04-30T13:50:16.753Z,4.43
2023-04-30T13:53:18.376Z,3.83
2023-04-30T13:56:19.996Z,7.20
2023-04-30T13:59:21.636Z,5.15
2023-04-30T14:02:23.258Z,4.22
2023-04-30T14:05:24.844Z,4.60
2023-04-30T14:08:26.318Z,4.28
2023-04-30T14:11:27.799Z,4.78
2023-04-30T14:14:29.360Z,4.07
2023-04-30T14:17:31.525Z,5.80
2023-04-30T14:20:33.008Z,4.00
2023-04-30T14:23:34.424Z,4.38
2023-04-30T14:26:36.174Z,3.95
2023-04-30T14:29:37.696Z,4.25
2023-04-30T14:32:39.168Z,4.28
2023-04-30T14:35:41.581Z,3.90
2023-04-30T14:38:43.820Z,3.95
2023-04-30T14:41:45.340Z,6.55
2023-04-30T14:44:46.804Z,5.53
2023-04-30T14:47:48.628Z,4.57
2023-04-30T14:50:50.468Z,4.28
2023-04-30T14:53:52.021Z,5.70
2023-04-30T14:56:53.685Z,4.57
2023-04-30T14:59:57.628Z,4.10
2023-04-30T15:03:00.026Z,4.53
2023-04-30T15:06:01.727Z,5.40
2023-04-30T15:09:03.819Z,4.45
2023-04-30T15:12:05.977Z,5.28
2023-04-30T15:15:09.076Z,4.28
2023-04-30T15:18:10.732Z,4.30
2023-04-30T15:21:12.382Z,4.25
2023-04-30T15:24:13.961Z,5.00
2023-04-30T15:27:15.501Z,4.40
2023-04-30T15:30:17.292Z,5.72
2023-04-30T15:33:24.450Z,5.15
2023-04-30T15:36:26.534Z,4.47
2023-04-30T15:39:28.043Z,4.30
2023-04-30T15:42:29.596Z,4.32
2023-04-30T15:45:33.111Z,6.25
2023-04-30T15:48:34.578Z,5.95
2023-04-30T15:51:36.886Z,4.90
2023-04-30T15:54:38.318Z,4.60
2023-04-30T15:57:39.789Z,6.00
2023-04-30T16:00:41.375Z,4.05
2023-04-30T16:03:43.353Z,5.22
2023-04-30T16:06:45.061Z,3.70
2023-04-30T16:09:49.023Z,4.90
2023-04-30T16:15:52.196Z,4.57
2023-04-30T16:18:53.714Z,4.88
2023-04-30T16:21:55.632Z,4.43
2023-04-30T16:24:57.299Z,4.38
2023-04-30T16:27:58.850Z,4.63
2023-04-30T16:31:00.714Z,4.05
2023-04-30T16:34:02.134Z,4.95
2023-04-30T16:37:03.773Z,4.95
2023-04-30T16:40:07.577Z,4.90
2023-04-30T16:43:09.541Z,6.32
2023-04-30T16:46:11.415Z,4.95
2023-04-30T16:49:12.962Z,3.80
2023-04-30T16:52:14.751Z,4.60
2023-04-30T16:55:16.326Z,4.35
2023-04-30T16:58:17.829Z,6.28
2023-04-30T17:01:19.526Z,4.90
2023-04-30T17:04:21.067Z,4.82
2023-04-30T17:07:22.629Z,4.53
2023-04-30T17:10:24.296Z,4.03
2023-04-30T17:13:26.340Z,4.68
2023-04-30T17:16:27.914Z,5.40
2023-04-30T17:19:29.537Z,4.55
2023-04-30T17:22:31.110Z,5.97
2023-04-30T17:25:33.627Z,5.75
2023-04-30T17:28:35.051Z,4.63
2023-04-30T17:31:36.669Z,4.10
2023-04-30T17:34:38.264Z,5.60
2023-04-30T17:37:39.834Z,5.88
2023-04-30T17:40:41.353Z,4.22
2023-04-30T17:43:43.000Z,5.50
2023-04-30T17:46:45.398Z,4.53
2023-04-30T17:49:46.910Z,5.00
2023-04-30T17:52:48.477Z,4.95
2023-04-30T17:55:50.176Z,6.07
2023-04-30T17:58:52.066Z,4.78
2023-04-30T18:01:53.977Z,5.55
2023-04-30T18:04:55.771Z,4.93
2023-04-30T18:07:57.262Z,4.75
2023-04-30T18:10:58.881Z,4.93
2023-04-30T18:14:00.424Z,5.65
2023-04-30T18:17:01.908Z,6.15
2023-04-30T18:20:04.367Z,4.80
2023-04-30T18:23:08.532Z,5.68
2023-04-30T18:26:11.281Z,4.65
2023-04-30T18:29:15.508Z,5.13
2023-04-30T18:32:18.074Z,6.50
2023-04-30T18:35:19.575Z,5.82
2023-04-30T18:38:21.073Z,7.78
2023-04-30T18:41:23.389Z,7.60
2023-04-30T18:44:32.074Z,8.23
2023-04-30T18:47:33.632Z,6.68
2023-04-30T18:50:35.124Z,5.72
2023-04-30T18:53:36.692Z,7.57
2023-04-30T18:56:38.366Z,7.35
2023-04-30T18:59:40.286Z,8.77
2023-04-30T19:02:43.010Z,9.85
2023-04-30T19:05:44.587Z,5.25
2023-04-30T19:08:46.837Z,5.53
2023-04-30T19:11:49.020Z,5.65
2023-04-30T19:14:50.582Z,6.93
2023-04-30T19:17:52.186Z,6.13
2023-04-30T19:20:57.044Z,6.57
2023-04-30T19:23:59.208Z,6.90
2023-04-30T19:27:04.243Z,5.55
2023-04-30T19:30:06.904Z,6.30
2023-04-30T19:33:08.710Z,9.27
2023-04-30T19:36:10.262Z,7.95
2023-04-30T19:39:12.011Z,9.77
2023-04-30T19:42:13.655Z,7.65
2023-04-30T19:45:15.365Z,6.82
2023-04-30T19:48:17.444Z,7.18
2023-04-30T19:51:18.978Z,5.80
2023-04-30T19:54:20.653Z,6.55
2023-04-30T19:57:22.176Z,6.00
2023-04-30T20:00:24.342Z,6.60
2023-04-30T20:03:26.472Z,8.13
2023-04-30T20:06:28.480Z,7.95
2023-04-30T20:09:30.103Z,6.50
2023-04-30T20:12:31.668Z,7.13
2023-04-30T20:15:33.763Z,10.30
2023-04-30T20:18:35.332Z,8.40
2023-04-30T20:21:37.171Z,8.20
2023-04-30T20:24:44.504Z,8.15
2023-04-30T20:27:46.513Z,7.82
2023-04-30T20:30:49.401Z,8.15
2023-04-30T20:33:50.899Z,6.88
2023-04-30T20:36:52.711Z,8.55
2023-04-30T20:39:54.435Z,8.23
2023-04-30T20:42:56.094Z,6.97
2023-04-30T20:46:00.758Z,7.40
2023-04-30T20:49:04.560Z,8.20
2023-04-30T20:52:06.796Z,7.63
2023-04-30T20:55:08.864Z,9.15
2023-04-30T20:58:10.508Z,9.27
2023-04-30T21:01:12.223Z,8.30
2023-04-30T21:04:13.753Z,8.38
2023-04-30T21:07:15.302Z,11.20
2023-04-30T21:10:16.827Z,8.25
2023-04-30T21:13:18.301Z,9.25
2023-04-30T21:16:19.777Z,9.02
2023-04-30T21:19:21.516Z,13.13
2023-04-30T21:22:23.893Z,10.25
2023-04-30T21:25:25.533Z,9.85
2023-04-30T21:28:27.499Z,7.40
2023-04-30T21:31:29.276Z,10.10
2023-04-30T21:34:31.877Z,8.43
2023-04-30T21:37:33.277Z,8.43
2023-04-30T21:40:34.874Z,6.65
2023-04-30T21:43:36.994Z,8.10
2023-04-30T21:46:38.500Z,7.00
2023-04-30T21:49:40.991Z,5.97
2023-04-30T21:52:42.507Z,7.85
2023-04-30T21:55:44.010Z,8.52
2023-04-30T21:58:45.478Z,6.97
2023-04-30T22:01:47.104Z,7.75
2023-04-30T22:04:48.697Z,7.57
2023-04-30T22:07:50.225Z,7.63
2023-04-30T22:10:59.221Z,7.32
2023-04-30T22:14:00.724Z,6.78
2023-04-30T22:17:02.268Z,6.30
2023-04-30T22:20:04.283Z,9.13
2023-04-30T22:23:06.069Z,9.65
2023-04-30T22:26:09.869Z,7.32
2023-04-30T22:29:11.532Z,7.15
2023-04-30T22:32:13.041Z,6.32
2023-04-30T22:35:17.001Z,6.32
2023-04-30T22:38:18.694Z,6.55
2023-04-30T22:41:21.964Z,6.80
2023-04-30T22:44:23.639Z,7.50
2023-04-30T22:47:27.438Z,9.40
2023-04-30T22:50:30.856Z,7.63
2023-04-30T22:53:34.312Z,7.43
2023-04-30T22:56:39.448Z,6.90
2023-04-30T22:59:41.193Z,6.53
2023-04-30T23:02:43.638Z,7.72
2023-04-30T23:05:45.234Z,9.45
2023-04-30T23:08:46.681Z,9.07
2023-04-30T23:11:48.236Z,8.02
2023-04-30T23:14:50.905Z,8.23
2023-04-30T23:17:54.288Z,8.48
2023-04-30T23:20:58.995Z,8.98
2023-04-30T23:24:01.323Z,8.75
2023-04-30T23:27:02.993Z,6.97
2023-04-30T23:30:05.029Z,6.68
2023-04-30T23:33:06.764Z,8.32
2023-04-30T23:36:08.216Z,8.98
2023-04-30T23:39:10.343Z,7.22
2023-04-30T23:42:11.755Z,7.65
2023-04-30T23:45:13.299Z,6.93
2023-04-30T23:48:15.567Z,8.70
2023-04-30T23:51:18.496Z,13.13
2023-04-30T23:54:20.868Z,11.37
2023-04-30T23:57:22.451Z,9.55
